createdAt,value
2022-09-23T00:00:31.056Z,7.46
2022-09-23T00:05:33.155Z,7.39
2022-09-23T00:10:38.380Z,7.29
2022-09-23T00:15:40.088Z,7.16
2022-09-23T00:20:41.734Z,7.09
2022-09-23T00:25:43.372Z,7.10
2022-09-23T00:30:45.401Z,7.14
2022-09-23T00:35:47.837Z,7.12
2022-09-23T00:40:49.885Z,7.03
2022-09-23T00:45:51.738Z,7.01
2022-09-23T00:50:55.730Z,6.94
2022-09-23T00:56:03.269Z,6.87
2022-09-23T01:01:05.221Z,6.80
2022-09-23T01:06:07.632Z,6.78
2022-09-23T01:11:53.819Z,6.62
2022-09-23T01:16:58.503Z,6.64
2022-09-23T01:22:31.513Z,6.46
2022-09-23T01:27:52.293Z,6.49
2022-09-23T01:32:54.280Z,6.52
2022-09-23T01:38:20.373Z,6.44
2022-09-23T01:43:30.185Z,6.48
2022-09-23T01:48:46.594Z,6.35
2022-09-23T01:54:25.383Z,6.35
2022-09-23T01:59:49.483Z,6.30
2022-09-23T02:04:58.516Z,6.26
2022-09-23T02:10:16.864Z,6.19
2022-09-23T02:15:23.751Z,6.16
2022-09-23T02:20:31.066Z,6.10
2022-09-23T02:25:58.989Z,6.04
2022-09-23T02:31:12.060Z,6.13
2022-09-23T02:36:31.546Z,6.12
2022-09-23T02:41:53.590Z,5.96
2022-09-23T02:46:56.864Z,6.02
2022-09-23T02:52:04.738Z,6.14
2022-09-23T02:57:08.348Z,6.11
2022-09-23T03:02:18.009Z,6.07
2022-09-23T03:07:25.814Z,6.12
2022-09-23T03:12:52.998Z,6.11
2022-09-23T03:18:32.407Z,6.15
2022-09-23T03:23:37.706Z,6.21
2022-09-23T03:29:14.189Z,6.17
2022-09-23T03:34:20.456Z,6.19
2022-09-23T03:39:44.286Z,6.06
2022-09-23T03:44:47.730Z,6.09
2022-09-23T03:49:51.628Z,6.11
2022-09-23T03:54:53.769Z,5.92
2022-09-23T03:59:55.429Z,5.90
2022-09-23T04:04:57.328Z,5.82
2022-09-23T04:09:59.221Z,5.70
2022-09-23T04:15:00.831Z,5.80
2022-09-23T04:20:02.665Z,5.82
2022-09-23T04:25:04.780Z,5.87
2022-09-23T04:30:07.136Z,5.90
2022-09-23T04:35:09.033Z,5.92
2022-09-23T04:40:10.901Z,5.92
2022-09-23T04:45:12.605Z,5.89
2022-09-23T04:50:14.343Z,5.89
2022-09-23T04:55:15.984Z,5.92
2022-09-23T05:00:17.823Z,5.87
2022-09-23T05:05:21.169Z,5.82
2022-09-23T05:10:23.267Z,5.89
2022-09-23T05:15:24.944Z,5.91
2022-09-23T05:20:26.573Z,5.87
2022-09-23T05:25:28.201Z,5.94
2022-09-23T05:30:30.149Z,5.97
2022-09-23T05:35:31.767Z,5.98
2022-09-23T05:40:33.413Z,5.85
2022-09-23T05:45:35.785Z,5.90
2022-09-23T05:50:37.854Z,6.10
2022-09-23T05:55:39.836Z,6.12
2022-09-23T06:00:43.387Z,6.05
2022-09-23T06:05:45.223Z,6.02
2022-09-23T06:10:53.588Z,6.17
2022-09-23T06:15:58.209Z,6.45
2022-09-23T06:21:04.269Z,6.49
2022-09-23T06:26:08.256Z,6.46
2022-09-23T06:31:17.519Z,6.54
2022-09-23T06:36:34.773Z,6.56
2022-09-23T06:41:39.460Z,6.71
2022-09-23T06:46:41.479Z,6.84
2022-09-23T06:51:43.169Z,6.89
2022-09-23T06:56:47.767Z,6.90
2022-09-23T07:01:50.728Z,7.08
2022-09-23T07:06:54.910Z,7.50
2022-09-23T07:11:56.712Z,7.66
2022-09-23T07:17:00.040Z,7.93
2022-09-23T07:22:01.741Z,8.14
2022-09-23T07:27:03.437Z,8.39
2022-09-23T07:32:48.893Z,8.57
2022-09-23T07:37:50.998Z,8.97
2022-09-23T07:42:52.606Z,9.32
2022-09-23T07:47:55.825Z,9.25
2022-09-23T07:52:57.891Z,9.46
2022-09-23T07:57:59.525Z,9.60
2022-09-23T08:03:01.180Z,10.12
2022-09-23T08:08:02.934Z,10.68
2022-09-23T08:13:04.706Z,11.17
2022-09-23T08:18:06.645Z,11.31
2022-09-23T08:23:08.371Z,11.23
2022-09-23T08:28:10.097Z,10.87
2022-09-23T08:33:12.453Z,11.14
2022-09-23T08:38:14.175Z,11.59
2022-09-23T08:43:30.868Z,11.79
2022-09-23T08:48:38.689Z,12.07
2022-09-23T08:53:42.301Z,12.20
2022-09-23T08:59:00.763Z,12.08
2022-09-23T09:04:24.362Z,12.29
2022-09-23T09:09:36.260Z,12.56
2022-09-23T09:15:10.042Z,12.73
2022-09-23T09:20:41.613Z,13.06
2022-09-23T09:25:49.626Z,13.27
2022-09-23T09:30:59.566Z,13.75
2022-09-23T09:36:24.071Z,14.08
2022-09-23T09:41:31.668Z,14.08
2022-09-23T09:46:54.353Z,14.13
2022-09-23T09:52:22.460Z,14.58
2022-09-23T09:57:42.071Z,15.33
2022-09-23T10:09:12.647Z,15.37
2022-09-23T10:14:26.843Z,15.79
2022-09-23T10:20:34.096Z,15.89
2022-09-23T10:25:36.725Z,15.85
2022-09-23T10:30:38.839Z,15.88
2022-09-23T10:35:57.319Z,15.88
2022-09-23T10:41:17.842Z,16.17
2022-09-23T10:46:42.494Z,16.29
2022-09-23T10:52:32.674Z,16.33
2022-09-23T10:57:46.540Z,16.37
2022-09-23T11:03:32.251Z,16.35
2022-09-23T11:09:05.799Z,16.34
2022-09-23T11:14:41.756Z,16.40
2022-09-23T11:20:05.366Z,16.72
2022-09-23T11:25:47.277Z,17.09
2022-09-23T11:31:01.416Z,17.24
2022-09-23T11:36:26.880Z,17.64
2022-09-23T11:41:40.028Z,17.88
2022-09-23T11:46:52.019Z,17.95
2022-09-23T11:52:19.793Z,17.55
2022-09-23T11:57:49.321Z,17.48
2022-09-23T12:03:44.471Z,17.73
2022-09-23T12:09:56.578Z,17.86
2022-09-23T12:15:20.401Z,18.09
2022-09-23T12:20:51.591Z,18.41
2022-09-23T12:37:59.528Z,19.25
2022-09-23T12:43:05.214Z,19.65
2022-09-23T12:48:30.917Z,19.68
2022-09-23T12:53:45.023Z,19.69
2022-09-23T12:58:51.143Z,19.70
2022-09-23T13:04:40.440Z,19.54
2022-09-23T13:09:53.415Z,19.97
2022-09-23T13:15:19.637Z,19.95
2022-09-23T13:20:44.862Z,20.10
2022-09-23T13:25:56.260Z,20.11
2022-09-23T13:30:58.965Z,19.97
2022-09-23T13:36:19.609Z,19.96
2022-09-23T13:41:28.767Z,20.21
2022-09-23T13:46:42.309Z,20.56
2022-09-23T13:51:45.658Z,20.47
2022-09-23T13:56:49.524Z,20.70
2022-09-23T14:02:01.903Z,20.96
2022-09-23T14:07:05.240Z,21.04
2022-09-23T14:12:10.666Z,21.01
2022-09-23T14:17:19.684Z,20.76
2022-09-23T14:22:26.462Z,20.33
2022-09-23T14:27:37.027Z,20.22
2022-09-23T14:32:40.443Z,20.05
2022-09-23T14:38:02.860Z,19.94
2022-09-23T14:43:23.438Z,19.95
2022-09-23T14:48:31.782Z,20.09
2022-09-23T14:53:39.921Z,19.54
2022-09-23T14:58:53.175Z,19.23
2022-09-23T15:04:02.646Z,18.95
2022-09-23T15:09:06.766Z,18.93
2022-09-23T15:14:35.939Z,18.91
2022-09-23T15:19:36.111Z,18.84
2022-09-23T15:24:44.917Z,18.87
2022-09-23T15:29:49.954Z,18.93
2022-09-23T15:35:00.981Z,18.83
2022-09-23T15:40:05.718Z,18.71
2022-09-23T15:45:11.186Z,18.59
2022-09-23T15:50:13.657Z,18.46
2022-09-23T15:55:23.168Z,18.52
2022-09-23T16:00:25.113Z,18.52
2022-09-23T16:05:36.048Z,18.52
2022-09-23T16:10:41.872Z,18.42
2022-09-23T16:15:44.048Z,18.33
2022-09-23T16:20:58.478Z,18.27
2022-09-23T16:26:03.558Z,18.16
2022-09-23T16:31:06.427Z,18.01
2022-09-23T16:36:28.838Z,17.78
2022-09-23T16:41:33.904Z,17.65
2022-09-23T16:46:35.759Z,17.47
2022-09-23T16:51:38.654Z,17.33
2022-09-23T16:56:46.519Z,17.21
2022-09-23T17:02:07.026Z,17.00
2022-09-23T17:07:10.981Z,16.34
2022-09-23T17:12:28.222Z,16.49
2022-09-23T17:17:29.941Z,16.31
2022-09-23T17:22:34.325Z,16.09
2022-09-23T17:27:37.466Z,15.98
2022-09-23T17:32:39.224Z,15.92
2022-09-23T17:37:42.477Z,15.84
2022-09-23T17:42:45.004Z,15.69
2022-09-23T17:47:54.894Z,15.63
2022-09-23T17:52:59.625Z,15.33
2022-09-23T17:58:02.303Z,15.29
2022-09-23T18:03:04.033Z,15.30
2022-09-23T18:08:06.195Z,15.28
2022-09-23T18:13:07.912Z,15.02
2022-09-23T18:18:11.048Z,14.93
2022-09-23T18:23:12.752Z,14.88
2022-09-23T18:28:14.391Z,14.87
2022-09-23T18:33:16.008Z,14.77
2022-09-23T18:38:18.294Z,14.72
2022-09-23T18:43:24.541Z,14.48
2022-09-23T18:48:48.108Z,14.37
2022-09-23T18:53:50.475Z,14.36
2022-09-23T18:58:53.984Z,14.32
2022-09-23T19:03:56.416Z,14.23
2022-09-23T19:09:00.174Z,14.26
2022-09-23T19:14:05.056Z,14.24
2022-09-23T19:19:07.838Z,14.11
2022-09-23T19:24:16.202Z,13.92
2022-09-23T19:29:22.142Z,13.67
2022-09-23T19:34:30.576Z,13.66
2022-09-23T19:39:35.042Z,13.48
2022-09-23T19:44:38.167Z,13.48
2022-09-23T19:49:39.993Z,13.45
2022-09-23T19:54:41.712Z,13.31
2022-09-23T19:59:43.576Z,13.35
2022-09-23T20:04:45.465Z,13.29
2022-09-23T20:09:47.397Z,13.21
2022-09-23T20:14:49.326Z,13.09
2022-09-23T20:19:50.981Z,12.97
2022-09-23T20:24:52.704Z,12.98
2022-09-23T20:29:55.607Z,13.00
2022-09-23T20:34:58.387Z,12.80
2022-09-23T20:40:00.885Z,12.74
2022-09-23T20:45:02.543Z,12.71
2022-09-23T20:50:04.495Z,12.57
2022-09-23T20:55:06.819Z,12.41
2022-09-23T21:00:09.141Z,12.34
2022-09-23T21:05:10.771Z,12.37
2022-09-23T21:10:12.538Z,12.37
2022-09-23T21:15:14.293Z,12.29
2022-09-23T21:20:16.045Z,12.22
2022-09-23T21:25:33.242Z,12.07
2022-09-23T21:30:35.222Z,11.65
2022-09-23T21:35:38.519Z,11.40
2022-09-23T21:40:58.589Z,11.39
2022-09-23T21:46:06.524Z,11.50
2022-09-23T21:51:14.224Z,11.62
2022-09-23T21:56:20.678Z,11.65
2022-09-23T22:01:33.300Z,11.67
2022-09-23T22:06:38.257Z,11.59
2022-09-23T22:11:59.649Z,11.57
2022-09-23T22:17:03.911Z,11.63
2022-09-23T22:22:14.637Z,11.63
2022-09-23T22:27:18.694Z,11.17
2022-09-23T22:32:39.504Z,11.51
2022-09-23T22:37:41.133Z,11.47
2022-09-23T22:42:43.687Z,11.50
2022-09-23T22:47:46.035Z,11.43
2022-09-23T22:52:47.769Z,11.19
2022-09-23T22:57:51.635Z,11.25
2022-09-23T23:02:54.708Z,11.25
2022-09-23T23:07:57.579Z,11.28
2022-09-23T23:12:59.260Z,11.19
2022-09-23T23:18:00.991Z,11.07
2022-09-23T23:23:02.772Z,11.06
2022-09-23T23:28:05.903Z,10.99
2022-09-23T23:33:07.646Z,11.02
2022-09-23T23:38:12.599Z,11.01
2022-09-23T23:43:14.947Z,10.96
2022-09-23T23:48:16.564Z,10.88
2022-09-23T23:53:19.365Z,10.76
2022-09-23T23:58:21.041Z,10.79
